createdAt,value
2023-02-11T00:01:24.367Z,24.83
2023-02-11T00:03:51.154Z,22.98
2023-02-11T00:06:18.005Z,25.02
2023-02-11T00:08:44.694Z,27.48
2023-02-11T00:11:17.196Z,29.27
2023-02-11T00:13:44.824Z,22.23
2023-02-11T00:16:15.461Z,25.85
2023-02-11T00:18:42.009Z,23.90
2023-02-11T00:21:14.656Z,25.83
2023-02-11T00:23:41.788Z,21.05
2023-02-11T00:26:29.626Z,21.42
2023-02-11T00:31:24.451Z,21.17
2023-02-11T00:33:51.462Z,22.95
2023-02-11T00:36:26.166Z,23.13
2023-02-11T00:38:54.045Z,21.75
2023-02-11T00:41:21.443Z,23.77
2023-02-11T00:43:48.690Z,22.75
2023-02-11T00:46:16.058Z,20.95
2023-02-11T00:48:42.957Z,20.40
2023-02-11T00:51:09.513Z,18.48
2023-02-11T00:53:36.152Z,21.33
2023-02-11T00:56:03.536Z,23.38
2023-02-11T00:58:30.390Z,21.27
2023-02-11T01:00:56.981Z,21.92
2023-02-11T01:03:23.923Z,19.92
2023-02-11T01:05:51.093Z,20.33
2023-02-11T01:08:17.830Z,21.80
2023-02-11T01:10:44.299Z,22.80
2023-02-11T01:13:11.173Z,23.50
2023-02-11T01:15:37.797Z,21.10
2023-02-11T01:18:05.402Z,21.27
2023-02-11T01:20:32.001Z,21.05
2023-02-11T01:22:58.480Z,17.98
2023-02-11T01:25:24.972Z,21.48
2023-02-11T01:27:51.491Z,22.48
2023-02-11T01:30:18.073Z,20.30
2023-02-11T01:32:44.594Z,20.05
2023-02-11T01:35:11.164Z,20.45
2023-02-11T01:37:37.692Z,20.27
2023-02-11T01:40:07.735Z,23.58
2023-02-11T01:42:34.348Z,21.30
2023-02-11T01:45:21.665Z,23.27
2023-02-11T01:47:48.209Z,18.95
2023-02-11T01:50:14.762Z,17.27
2023-02-11T01:52:42.611Z,22.17
2023-02-11T01:55:30.869Z,21.17
2023-02-11T01:58:02.892Z,18.02
2023-02-11T02:00:36.345Z,21.95
2023-02-11T02:03:18.048Z,18.50
2023-02-11T02:05:54.316Z,18.30
2023-02-11T02:08:53.281Z,21.83
2023-02-11T02:11:19.870Z,18.85
2023-02-11T02:13:46.646Z,17.70
2023-02-11T02:16:16.800Z,20.92
2023-02-11T02:19:04.966Z,21.80
2023-02-11T02:22:10.479Z,22.60
2023-02-11T02:24:59.981Z,18.15
2023-02-11T02:27:47.454Z,22.77
2023-02-11T02:30:41.766Z,20.88
2023-02-11T02:33:22.383Z,20.67
2023-02-11T02:36:04.322Z,18.70
2023-02-11T02:38:33.144Z,23.25
2023-02-11T02:41:12.995Z,19.30
2023-02-11T02:43:45.412Z,17.55
2023-02-11T02:46:16.980Z,19.83
2023-02-11T02:48:44.128Z,20.50
2023-02-11T02:51:19.605Z,16.65
2023-02-11T02:56:20.740Z,19.17
2023-02-11T02:59:05.581Z,17.17
2023-02-11T03:01:56.153Z,15.50
2023-02-11T03:04:37.139Z,21.90
2023-02-11T03:07:17.091Z,20.30
2023-02-11T03:09:57.667Z,18.00
2023-02-11T03:12:25.483Z,18.63
2023-02-11T03:14:52.742Z,19.95
2023-02-11T03:17:19.756Z,16.98
2023-02-11T03:19:50.597Z,18.77
2023-02-11T03:22:30.653Z,15.55
2023-02-11T03:24:57.232Z,19.00
2023-02-11T03:27:35.728Z,14.90
2023-02-11T03:30:26.469Z,18.27
2023-02-11T03:33:01.301Z,15.38
2023-02-11T03:35:35.390Z,17.00
2023-02-11T03:38:13.228Z,16.58
2023-02-11T03:40:43.633Z,16.98
2023-02-11T03:43:32.110Z,17.33
2023-02-11T03:46:00.308Z,13.85
2023-02-11T03:48:49.650Z,19.60
2023-02-11T03:51:16.336Z,14.23
2023-02-11T03:53:46.548Z,13.30
2023-02-11T03:56:18.229Z,21.20
2023-02-11T03:58:46.051Z,20.40
2023-02-11T04:01:12.660Z,20.80
2023-02-11T04:03:39.236Z,15.02
2023-02-11T04:06:06.090Z,19.25
2023-02-11T04:08:32.904Z,17.00
2023-02-11T04:10:59.422Z,24.45
2023-02-11T04:13:26.182Z,20.23
2023-02-11T04:15:52.933Z,22.85
2023-02-11T04:18:21.746Z,20.88
2023-02-11T04:20:50.228Z,12.40
2023-02-11T04:23:16.767Z,16.48
2023-02-11T04:25:43.597Z,10.95
2023-02-11T04:28:10.221Z,17.48
2023-02-11T04:30:36.827Z,12.55
2023-02-11T04:33:03.517Z,13.05
2023-02-11T04:35:30.003Z,19.27
2023-02-11T04:37:56.740Z,18.63
2023-02-11T04:40:23.278Z,20.67
2023-02-11T04:42:49.777Z,15.30
2023-02-11T04:45:16.426Z,18.90
2023-02-11T04:47:43.035Z,19.83
2023-02-11T04:50:09.722Z,16.48
2023-02-11T04:52:36.247Z,18.95
2023-02-11T04:55:02.746Z,19.52
2023-02-11T04:57:29.256Z,21.00
2023-02-11T04:59:55.808Z,22.95
2023-02-11T05:02:22.351Z,26.52
2023-02-11T05:04:48.835Z,18.25
2023-02-11T05:07:15.413Z,19.02
2023-02-11T05:09:41.993Z,22.92
2023-02-11T05:12:08.582Z,22.20
2023-02-11T05:14:35.129Z,21.60
2023-02-11T05:17:01.711Z,21.15
2023-02-11T05:19:28.218Z,21.27
2023-02-11T05:22:02.670Z,17.13
2023-02-11T05:24:32.330Z,18.35
2023-02-11T05:26:59.080Z,21.10
2023-02-11T05:29:25.653Z,19.85
2023-02-11T05:31:52.535Z,21.23
2023-02-11T05:34:19.067Z,19.85
2023-02-11T05:36:45.766Z,20.60
2023-02-11T05:39:12.299Z,22.08
2023-02-11T05:41:38.855Z,24.95
2023-02-11T05:44:05.416Z,16.98
2023-02-11T05:46:32.028Z,21.55
2023-02-11T05:48:58.575Z,19.50
2023-02-11T05:51:25.362Z,20.90
2023-02-11T05:53:53.390Z,21.27
2023-02-11T05:56:20.064Z,22.38
2023-02-11T05:58:46.710Z,18.98
2023-02-11T06:01:13.228Z,17.27
2023-02-11T06:03:39.832Z,24.00
2023-02-11T06:06:11.839Z,23.08
2023-02-11T06:08:39.394Z,20.65
2023-02-11T06:11:06.355Z,17.27
2023-02-11T06:13:33.036Z,23.05
2023-02-11T06:16:01.128Z,20.23
2023-02-11T06:18:28.317Z,18.80
2023-02-11T06:20:55.050Z,19.75
2023-02-11T06:23:22.346Z,17.05
2023-02-11T06:25:49.656Z,22.70
2023-02-11T06:28:16.486Z,18.02
2023-02-11T06:30:43.096Z,20.35
2023-02-11T06:33:09.727Z,22.58
2023-02-11T06:35:39.410Z,23.13
2023-02-11T06:38:05.906Z,18.60
2023-02-11T06:40:32.404Z,29.98
2023-02-11T06:42:58.933Z,20.35
2023-02-11T06:45:25.493Z,23.05
2023-02-11T06:47:52.898Z,24.33
2023-02-11T06:50:19.445Z,22.58
2023-02-11T06:52:46.169Z,21.23
2023-02-11T06:55:12.717Z,23.55
2023-02-11T06:57:39.386Z,22.00
2023-02-11T07:00:06.735Z,28.25
2023-02-11T07:02:33.352Z,21.40
2023-02-11T07:04:59.951Z,23.17
2023-02-11T07:07:27.587Z,19.35
2023-02-11T07:09:54.139Z,26.70
2023-02-11T07:12:21.816Z,18.55
2023-02-11T07:14:48.342Z,23.98
2023-02-11T07:17:15.115Z,28.75
2023-02-11T07:19:41.851Z,28.98
2023-02-11T07:22:08.360Z,23.13
2023-02-11T07:24:34.874Z,21.55
2023-02-11T07:27:01.381Z,26.55
2023-02-11T07:29:27.919Z,29.42
2023-02-11T07:31:54.553Z,28.35
2023-02-11T07:34:21.262Z,22.27
2023-02-11T07:36:49.081Z,28.42
2023-02-11T07:39:15.940Z,23.10
2023-02-11T07:41:43.713Z,27.05
2023-02-11T07:44:10.305Z,24.27
2023-02-11T07:46:36.973Z,24.02
2023-02-11T07:49:03.700Z,22.40
2023-02-11T07:51:31.386Z,23.83
2023-02-11T07:53:59.616Z,26.52
2023-02-11T07:56:26.366Z,21.50
2023-02-11T07:58:53.357Z,23.27
2023-02-11T08:01:24.961Z,21.98
2023-02-11T08:03:52.506Z,25.08
2023-02-11T08:06:20.395Z,24.70
2023-02-11T08:08:47.398Z,28.27
2023-02-11T08:11:20.241Z,25.38
2023-02-11T08:13:47.026Z,26.00
2023-02-11T08:16:25.694Z,20.45
2023-02-11T08:18:53.276Z,26.60
2023-02-11T08:21:20.576Z,24.80
2023-02-11T08:23:47.737Z,27.98
2023-02-11T08:26:18.178Z,23.95
2023-02-11T08:28:46.677Z,30.27
2023-02-11T08:31:17.346Z,29.70
2023-02-11T08:33:44.588Z,25.98
2023-02-11T08:36:19.010Z,23.80
2023-02-11T08:38:46.645Z,25.70
2023-02-11T08:41:17.241Z,29.60
2023-02-11T08:43:45.004Z,30.65
2023-02-11T08:46:17.569Z,37.97
2023-02-11T08:48:45.531Z,26.67
2023-02-11T08:51:17.044Z,30.20
2023-02-11T08:53:43.966Z,32.03
2023-02-11T08:56:13.403Z,29.10
2023-02-11T08:58:40.706Z,33.13
2023-02-11T09:01:15.178Z,31.02
2023-02-11T09:03:41.676Z,25.45
2023-02-11T09:06:10.572Z,31.70
2023-02-11T09:08:39.142Z,34.63
2023-02-11T09:11:06.017Z,25.15
2023-02-11T09:13:33.757Z,31.45
2023-02-11T09:16:01.904Z,27.77
2023-02-11T09:18:28.604Z,32.47
2023-02-11T09:21:03.918Z,36.80
2023-02-11T09:23:30.954Z,31.55
2023-02-11T09:25:57.451Z,35.30
2023-02-11T09:28:24.165Z,27.75
2023-02-11T09:30:51.140Z,26.73
2023-02-11T09:33:17.954Z,21.08
2023-02-11T09:35:44.485Z,28.73
2023-02-11T09:38:11.001Z,33.42
2023-02-11T09:40:43.222Z,25.23
2023-02-11T09:43:19.626Z,28.75
2023-02-11T09:45:46.247Z,28.42
2023-02-11T09:48:20.003Z,32.28
2023-02-11T09:50:54.862Z,29.58
2023-02-11T09:53:35.010Z,23.35
2023-02-11T09:56:12.827Z,22.80
2023-02-11T09:58:42.303Z,31.60
2023-02-11T10:01:34.821Z,33.28
2023-02-11T10:04:10.162Z,29.13
2023-02-11T10:09:50.017Z,29.08
2023-02-11T10:12:47.456Z,22.38
2023-02-11T10:15:51.006Z,27.50
2023-02-11T10:18:55.297Z,30.08
2023-02-11T10:21:51.543Z,25.55
2023-02-11T10:24:19.070Z,29.35
2023-02-11T10:26:46.644Z,31.70
2023-02-11T10:29:35.688Z,27.00
2023-02-11T10:32:07.447Z,31.85
2023-02-11T10:34:44.079Z,30.60
2023-02-11T10:37:13.789Z,27.70
2023-02-11T10:39:40.938Z,24.45
2023-02-11T10:42:12.245Z,28.38
2023-02-11T10:44:43.754Z,27.60
2023-02-11T10:47:20.668Z,28.98
2023-02-11T10:49:48.100Z,30.63
2023-02-11T10:52:17.618Z,27.27
2023-02-11T10:55:21.494Z,24.52
2023-02-11T10:57:56.377Z,25.50
2023-02-11T11:00:43.272Z,29.83
2023-02-11T11:03:20.713Z,28.30
2023-02-11T11:05:52.725Z,29.25
2023-02-11T11:08:19.907Z,28.15
2023-02-11T11:11:03.927Z,29.05
2023-02-11T11:13:36.339Z,25.05
2023-02-11T11:16:29.816Z,27.60
2023-02-11T11:19:08.364Z,30.08
2023-02-11T11:21:42.331Z,25.33
2023-02-11T11:24:33.498Z,27.15
2023-02-11T11:27:02.892Z,29.05
2023-02-11T11:29:40.443Z,32.22
2023-02-11T11:32:21.448Z,34.40
2023-02-11T11:34:55.673Z,30.98
2023-02-11T11:37:31.018Z,35.20
2023-02-11T11:42:29.529Z,29.38
2023-02-11T11:45:15.123Z,33.25
2023-02-11T11:48:24.027Z,33.03
2023-02-11T11:50:58.454Z,30.02
2023-02-11T11:53:31.004Z,31.27
2023-02-11T11:56:21.746Z,32.50
2023-02-11T11:58:49.841Z,27.20
2023-02-11T12:02:08.525Z,30.73
2023-02-11T12:04:47.393Z,31.75
2023-02-11T12:07:31.861Z,36.40
2023-02-11T12:10:18.252Z,26.50
2023-02-11T12:12:50.523Z,31.13
2023-02-11T12:15:39.309Z,26.83
2023-02-11T12:18:25.816Z,27.85
2023-02-11T12:20:52.742Z,35.13
2023-02-11T12:23:53.422Z,38.08
2023-02-11T12:26:23.374Z,27.33
2023-02-11T12:29:05.119Z,28.75
2023-02-11T12:31:44.283Z,29.73
2023-02-11T12:34:26.280Z,29.75
2023-02-11T12:37:14.246Z,30.48
2023-02-11T12:39:51.073Z,29.85
2023-02-11T12:42:48.311Z,33.03
2023-02-11T12:45:27.516Z,34.05
2023-02-11T12:47:56.941Z,34.92
2023-02-11T12:50:35.464Z,33.58
2023-02-11T12:53:33.119Z,27.65
2023-02-11T12:56:12.881Z,31.88
2023-02-11T12:58:45.263Z,30.17
2023-02-11T13:01:35.817Z,32.83
2023-02-11T13:04:44.714Z,33.83
2023-02-11T13:07:42.158Z,32.88
2023-02-11T13:10:34.064Z,29.95
2023-02-11T13:13:17.829Z,33.60
2023-02-11T13:15:54.173Z,31.67
2023-02-11T13:18:38.992Z,35.30
2023-02-11T13:21:26.819Z,35.00
2023-02-11T13:24:02.781Z,31.48
2023-02-11T13:26:32.419Z,28.20
2023-02-11T13:29:16.990Z,34.42
2023-02-11T13:31:53.412Z,31.55
2023-02-11T13:34:25.223Z,30.42
2023-02-11T13:36:57.261Z,30.02
2023-02-11T13:39:24.479Z,30.90
2023-02-11T13:41:52.900Z,27.52
2023-02-11T13:44:24.149Z,35.00
2023-02-11T13:46:50.817Z,30.80
2023-02-11T13:49:42.607Z,32.28
2023-02-11T13:52:23.633Z,36.45
2023-02-11T13:54:52.008Z,32.05
2023-02-11T13:57:23.337Z,31.08
2023-02-11T13:59:52.699Z,34.22
2023-02-11T14:02:52.673Z,32.75
2023-02-11T14:08:28.401Z,32.55
2023-02-11T14:10:59.335Z,30.13
2023-02-11T14:13:33.566Z,34.88
2023-02-11T14:16:16.955Z,32.08
2023-02-11T14:18:50.050Z,32.03
2023-02-11T14:21:23.943Z,29.50
2023-02-11T14:23:54.557Z,30.67
2023-02-11T14:26:21.121Z,33.97
2023-02-11T14:29:29.801Z,34.35
2023-02-11T14:32:25.838Z,40.83
2023-02-11T14:35:12.321Z,33.15
2023-02-11T14:38:02.362Z,35.53
2023-02-11T14:40:33.196Z,30.98
2023-02-11T14:43:24.543Z,33.58
2023-02-11T14:45:55.678Z,34.00
2023-02-11T14:48:29.035Z,38.75
2023-02-11T14:51:03.619Z,33.78
2023-02-11T14:53:32.592Z,34.55
2023-02-11T14:55:59.176Z,33.22
2023-02-11T14:58:33.856Z,37.75
2023-02-11T15:01:06.764Z,33.88
2023-02-11T15:03:42.333Z,32.10
2023-02-11T15:06:21.363Z,32.88
2023-02-11T15:08:53.944Z,34.63
2023-02-11T15:11:23.871Z,31.38
2023-02-11T15:13:53.031Z,33.47
2023-02-11T15:16:24.143Z,31.55
2023-02-11T15:19:00.739Z,34.13
2023-02-11T15:21:31.386Z,27.83
2023-02-11T15:24:05.924Z,33.22
2023-02-11T15:26:33.630Z,30.95
2023-02-11T15:29:00.239Z,33.45
2023-02-11T15:31:27.987Z,32.60
2023-02-11T15:33:55.200Z,32.35
2023-02-11T15:36:28.553Z,35.45
2023-02-11T15:39:17.347Z,32.85
2023-02-11T15:41:44.521Z,35.08
2023-02-11T15:44:38.295Z,31.27
2023-02-11T15:47:10.291Z,32.10
2023-02-11T15:49:36.903Z,33.40
2023-02-11T15:52:04.376Z,30.13
2023-02-11T15:54:32.560Z,34.92
2023-02-11T15:57:07.703Z,30.85
2023-02-11T15:59:38.843Z,30.25
2023-02-11T16:02:16.833Z,29.20
2023-02-11T16:05:09.526Z,35.47
2023-02-11T16:07:49.850Z,33.20
2023-02-11T16:10:22.509Z,33.97
2023-02-11T16:13:07.489Z,31.75
2023-02-11T16:15:35.468Z,34.45
2023-02-11T16:18:06.095Z,31.23
2023-02-11T16:20:32.596Z,32.83
2023-02-11T16:23:06.710Z,34.90
2023-02-11T16:25:35.497Z,33.47
2023-02-11T16:28:02.336Z,32.50
2023-02-11T16:30:37.669Z,40.03
2023-02-11T16:35:32.809Z,32.78
2023-02-11T16:37:59.281Z,35.10
2023-02-11T16:40:25.923Z,29.00
2023-02-11T16:42:53.588Z,35.20
2023-02-11T16:45:20.272Z,39.28
2023-02-11T16:47:47.016Z,34.88
2023-02-11T16:50:22.530Z,34.60
2023-02-11T16:52:49.361Z,40.92
2023-02-11T16:55:16.210Z,34.83
2023-02-11T16:57:42.790Z,37.78
2023-02-11T17:00:10.393Z,37.05
2023-02-11T17:02:38.419Z,38.42
2023-02-11T17:05:07.996Z,34.85
2023-02-11T17:07:34.576Z,32.20
2023-02-11T17:10:01.048Z,40.33
2023-02-11T17:12:27.671Z,37.17
2023-02-11T17:14:54.662Z,35.17
2023-02-11T17:17:23.594Z,33.78
2023-02-11T17:19:51.122Z,34.15
2023-02-11T17:22:18.503Z,32.97
2023-02-11T17:24:45.099Z,36.05
2023-02-11T17:27:12.090Z,38.75
2023-02-11T17:29:38.611Z,36.92
2023-02-11T17:32:05.271Z,38.72
2023-02-11T17:34:32.461Z,36.80
2023-02-11T17:37:00.173Z,34.38
2023-02-11T17:39:27.575Z,36.33
2023-02-11T17:41:54.300Z,35.50
2023-02-11T17:44:21.069Z,34.80
2023-02-11T17:46:47.656Z,32.75
2023-02-11T17:49:14.433Z,35.70
2023-02-11T17:51:41.045Z,39.08
2023-02-11T17:54:13.759Z,38.05
2023-02-11T17:56:41.168Z,35.92
2023-02-11T17:59:09.357Z,34.55
2023-02-11T18:01:37.660Z,34.97
2023-02-11T18:04:05.524Z,30.35
2023-02-11T18:06:33.838Z,33.65
2023-02-11T18:09:02.418Z,39.08
2023-02-11T18:11:30.493Z,37.15
2023-02-11T18:13:59.875Z,36.00
2023-02-11T18:16:28.729Z,36.80
2023-02-11T18:18:57.474Z,37.03
2023-02-11T18:21:24.914Z,36.42
2023-02-11T18:23:52.347Z,33.20
2023-02-11T18:26:21.159Z,37.45
2023-02-11T18:28:48.191Z,32.45
2023-02-11T18:31:15.033Z,34.78
2023-02-11T18:33:42.869Z,34.78
2023-02-11T18:36:13.754Z,36.22
2023-02-11T18:38:41.495Z,36.50
2023-02-11T18:41:08.333Z,38.05
2023-02-11T18:43:35.339Z,36.95
2023-02-11T18:46:06.278Z,35.80
2023-02-11T18:48:33.005Z,35.90
2023-02-11T18:50:59.559Z,36.83
2023-02-11T18:53:26.471Z,40.92
2023-02-11T18:55:54.155Z,38.60
2023-02-11T18:58:23.986Z,37.10
2023-02-11T19:00:50.632Z,37.88
2023-02-11T19:03:17.360Z,42.45
2023-02-11T19:05:46.387Z,38.20
2023-02-11T19:08:13.515Z,42.95
2023-02-11T19:10:45.465Z,37.60
2023-02-11T19:13:12.886Z,42.13
2023-02-11T19:15:45.030Z,45.72
2023-02-11T19:18:13.024Z,40.45
2023-02-11T19:20:41.661Z,38.38
2023-02-11T19:23:08.766Z,42.13
2023-02-11T19:25:35.299Z,39.72
2023-02-11T19:28:02.621Z,41.47
2023-02-11T19:30:29.626Z,42.97
2023-02-11T19:32:57.634Z,41.10
2023-02-11T19:35:25.284Z,43.60
2023-02-11T19:37:53.944Z,35.40
2023-02-11T19:40:21.328Z,39.90
2023-02-11T19:42:48.231Z,40.72
2023-02-11T19:45:14.966Z,38.38
2023-02-11T19:47:41.561Z,43.65
2023-02-11T19:50:08.842Z,46.25
2023-02-11T19:52:38.409Z,43.70
2023-02-11T19:55:05.404Z,44.83
2023-02-11T19:57:32.066Z,38.88
2023-02-11T19:59:58.851Z,44.65
2023-02-11T20:02:25.578Z,39.67
2023-02-11T20:04:52.319Z,43.72
2023-02-11T20:07:18.903Z,45.58
2023-02-11T20:09:45.457Z,43.60
2023-02-11T20:12:12.114Z,41.35
2023-02-11T20:14:38.817Z,47.08
2023-02-11T20:17:05.452Z,44.85
2023-02-11T20:19:32.088Z,40.35
2023-02-11T20:21:58.821Z,44.20
2023-02-11T20:24:26.006Z,46.08
2023-02-11T20:26:55.908Z,49.65
2023-02-11T20:29:24.053Z,41.45
2023-02-11T20:31:51.076Z,44.72
2023-02-11T20:34:18.258Z,45.80
2023-02-11T20:36:51.727Z,41.50
2023-02-11T20:39:21.858Z,41.30
2023-02-11T20:41:49.034Z,47.25
2023-02-11T20:44:15.785Z,42.50
2023-02-11T20:46:47.735Z,39.65
2023-02-11T20:49:18.755Z,47.33
2023-02-11T20:51:45.589Z,51.97
2023-02-11T20:54:15.354Z,46.45
2023-02-11T20:56:42.068Z,49.30
2023-02-11T20:59:08.964Z,39.88
2023-02-11T21:01:41.370Z,45.92
2023-02-11T21:04:12.892Z,40.10
2023-02-11T21:06:49.806Z,42.78
2023-02-11T21:09:19.949Z,45.97
2023-02-11T21:11:47.053Z,42.28
